createdAt,value
2023-01-27T00:01:51.980Z,98987.00
2023-01-27T00:04:22.999Z,98992.00
2023-01-27T00:06:53.889Z,98995.00
2023-01-27T00:09:24.799Z,98998.00
2023-01-27T00:12:13.945Z,99001.00
2023-01-27T00:14:44.841Z,98989.00
2023-01-27T00:17:15.754Z,98987.00
2023-01-27T00:19:46.666Z,98984.00
2023-01-27T00:22:35.902Z,98988.00
2023-01-27T00:25:07.512Z,98977.00
2023-01-27T00:27:38.674Z,98986.00
2023-01-27T00:30:11.513Z,98990.00
2023-01-27T00:33:01.036Z,98983.00
2023-01-27T00:35:32.194Z,98981.00
2023-01-27T00:38:03.097Z,98992.00
2023-01-27T00:40:33.987Z,98986.00
2023-01-27T00:43:04.891Z,98993.00
2023-01-27T00:45:51.340Z,98991.00
2023-01-27T00:48:22.283Z,98985.00
2023-01-27T00:50:53.210Z,98991.00
2023-01-27T00:53:24.221Z,98992.00
2023-01-27T00:55:55.241Z,98985.00
2023-01-27T00:58:27.614Z,98993.00
2023-01-27T01:01:01.423Z,98986.00
2023-01-27T01:03:35.224Z,98987.00
2023-01-27T01:06:10.175Z,98993.00
2023-01-27T01:08:41.826Z,98997.00
2023-01-27T01:11:17.483Z,99000.00
2023-01-27T01:13:49.004Z,99001.00
2023-01-27T01:16:23.259Z,98996.00
2023-01-27T01:18:54.526Z,99004.00
2023-01-27T01:21:25.447Z,99016.00
2023-01-27T01:23:56.302Z,99002.00
2023-01-27T01:26:27.176Z,99013.00
2023-01-27T01:28:58.045Z,99000.00
2023-01-27T01:31:28.990Z,99004.00
2023-01-27T01:33:59.923Z,99008.00
2023-01-27T01:36:30.867Z,99004.00
2023-01-27T01:39:01.807Z,98999.00
2023-01-27T01:41:32.692Z,99004.00
2023-01-27T01:44:32.101Z,99000.00
2023-01-27T01:47:03.274Z,98999.00
2023-01-27T01:49:39.386Z,98997.00
2023-01-27T01:52:18.636Z,98989.00
2023-01-27T01:54:56.221Z,98980.00
2023-01-27T01:57:33.676Z,98982.00
2023-01-27T02:00:09.368Z,98969.00
2023-01-27T02:02:41.820Z,98973.00
2023-01-27T02:05:28.690Z,98974.00
2023-01-27T02:08:24.809Z,98967.00
2023-01-27T02:10:55.882Z,98973.00
2023-01-27T02:13:26.779Z,98970.00
2023-01-27T02:15:57.742Z,98973.00
2023-01-27T02:18:29.751Z,98966.00
2023-01-27T02:21:01.900Z,98966.00
2023-01-27T02:23:54.891Z,98966.00
2023-01-27T02:26:32.633Z,98967.00
2023-01-27T02:29:18.238Z,98963.00
2023-01-27T02:31:49.166Z,98961.00
2023-01-27T02:34:26.162Z,98960.00
2023-01-27T02:37:03.289Z,98959.00
2023-01-27T02:39:40.539Z,98966.00
2023-01-27T02:42:15.191Z,98968.00
2023-01-27T02:44:46.112Z,98971.00
2023-01-27T02:47:17.033Z,98966.00
2023-01-27T02:49:49.646Z,98973.00
2023-01-27T02:52:21.425Z,98968.00
2023-01-27T02:54:52.689Z,98965.00
2023-01-27T02:57:23.548Z,98958.00
2023-01-27T02:59:54.447Z,98963.00
2023-01-27T03:02:30.522Z,98961.00
2023-01-27T03:05:01.487Z,98965.00
2023-01-27T03:07:32.435Z,98975.00
2023-01-27T03:10:03.900Z,98955.00
2023-01-27T03:12:35.218Z,98944.00
2023-01-27T03:15:25.613Z,98946.00
2023-01-27T03:18:16.031Z,98949.00
2023-01-27T03:20:49.613Z,98966.00
2023-01-27T03:23:20.969Z,98978.00
2023-01-27T03:25:51.919Z,98966.00
2023-01-27T03:28:22.835Z,98960.00
2023-01-27T03:31:01.646Z,98960.00
2023-01-27T03:33:33.249Z,98971.00
2023-01-27T03:36:23.748Z,98968.00
2023-01-27T03:39:13.296Z,98975.00
2023-01-27T03:42:02.468Z,98975.00
2023-01-27T03:44:51.853Z,98969.00
2023-01-27T03:47:24.152Z,98976.00
2023-01-27T03:49:55.026Z,98969.00
2023-01-27T03:52:25.926Z,98961.00
2023-01-27T03:54:56.804Z,98987.00
2023-01-27T03:57:27.675Z,98970.00
2023-01-27T03:59:58.575Z,98976.00
2023-01-27T04:02:48.070Z,98970.00
2023-01-27T04:05:37.387Z,98968.00
2023-01-27T04:08:08.300Z,98977.00
2023-01-27T04:10:39.181Z,98972.00
2023-01-27T04:13:10.262Z,98969.00
2023-01-27T04:15:41.237Z,98971.00
2023-01-27T04:18:12.125Z,98972.00
2023-01-27T04:20:42.996Z,98980.00
2023-01-27T04:23:13.866Z,98978.00
2023-01-27T04:25:44.767Z,98987.00
2023-01-27T04:28:16.095Z,98987.00
2023-01-27T04:30:49.106Z,98983.00
2023-01-27T04:33:20.176Z,98984.00
2023-01-27T04:35:51.190Z,98990.00
2023-01-27T04:38:22.371Z,98994.00
2023-01-27T04:40:53.328Z,98977.00
2023-01-27T04:43:24.279Z,98991.00
2023-01-27T04:45:55.498Z,98982.00
2023-01-27T04:48:26.429Z,98994.00
2023-01-27T04:50:57.345Z,98991.00
2023-01-27T04:53:28.271Z,98982.00
2023-01-27T04:56:18.448Z,98972.00
2023-01-27T04:58:50.171Z,98989.00
2023-01-27T05:01:24.327Z,98997.00
2023-01-27T05:03:56.360Z,98995.00
2023-01-27T05:06:28.016Z,98987.00
2023-01-27T05:08:59.079Z,98993.00
2023-01-27T05:11:30.370Z,99000.00
2023-01-27T05:14:01.221Z,98998.00
2023-01-27T05:16:32.264Z,98983.00
2023-01-27T05:19:05.932Z,98982.00
2023-01-27T05:21:39.239Z,98992.00
2023-01-27T05:24:11.295Z,98997.00
2023-01-27T05:26:42.247Z,98991.00
2023-01-27T05:29:13.114Z,99000.00
2023-01-27T05:31:44.094Z,99005.00
2023-01-27T05:34:15.749Z,99001.00
2023-01-27T05:36:46.744Z,99000.00
2023-01-27T05:39:17.786Z,99003.00
2023-01-27T05:41:49.184Z,99016.00
2023-01-27T05:44:24.229Z,99015.00
2023-01-27T05:46:55.132Z,99016.00
2023-01-27T05:49:26.041Z,99023.00
2023-01-27T05:51:56.932Z,99011.00
2023-01-27T05:54:27.920Z,99012.00
2023-01-27T05:56:58.809Z,99014.00
2023-01-27T05:59:29.667Z,99003.00
2023-01-27T06:02:00.610Z,99015.00
2023-01-27T06:04:31.632Z,99013.00
2023-01-27T06:07:02.565Z,99012.00
2023-01-27T06:09:33.446Z,99011.00
2023-01-27T06:12:04.523Z,99011.00
2023-01-27T06:14:35.374Z,99007.00
2023-01-27T06:17:07.224Z,99005.00
2023-01-27T06:19:38.076Z,99022.00
2023-01-27T06:22:09.014Z,99022.00
2023-01-27T06:24:39.871Z,99016.00
2023-01-27T06:27:11.014Z,99015.00
2023-01-27T06:29:41.896Z,99016.00
2023-01-27T06:32:12.822Z,99015.00
2023-01-27T06:34:43.761Z,99021.00
2023-01-27T06:37:14.688Z,99017.00
2023-01-27T06:39:45.555Z,99021.00
2023-01-27T06:42:16.459Z,99022.00
2023-01-27T06:44:47.356Z,99018.00
2023-01-27T06:47:18.234Z,99042.00
2023-01-27T06:49:49.132Z,99035.00
2023-01-27T06:52:20.081Z,99033.00
2023-01-27T06:54:50.916Z,99042.00
2023-01-27T06:57:21.848Z,99049.00
2023-01-27T06:59:52.825Z,99060.00
2023-01-27T07:02:23.731Z,99062.00
2023-01-27T07:04:54.638Z,99066.00
2023-01-27T07:07:28.611Z,99068.00
2023-01-27T07:09:59.576Z,99068.00
2023-01-27T07:12:30.624Z,99072.00
2023-01-27T07:15:01.548Z,99085.00
2023-01-27T07:17:32.579Z,99084.00
2023-01-27T07:20:06.109Z,99087.00
2023-01-27T07:22:37.733Z,99087.00
2023-01-27T07:25:08.875Z,99091.00
2023-01-27T07:27:39.724Z,99088.00
2023-01-27T07:30:12.089Z,99094.00
2023-01-27T07:32:43.185Z,99086.00
2023-01-27T07:35:14.230Z,99090.00
2023-01-27T07:37:45.116Z,99093.00
2023-01-27T07:40:16.710Z,99101.00
2023-01-27T07:42:47.671Z,99100.00
2023-01-27T07:45:18.551Z,99100.00
2023-01-27T07:47:49.428Z,99099.00
2023-01-27T07:50:21.725Z,99107.00
2023-01-27T07:52:52.611Z,99114.00
2023-01-27T07:55:23.453Z,99117.00
2023-01-27T07:57:54.839Z,99126.00
2023-01-27T08:00:26.108Z,99116.00
2023-01-27T08:03:00.291Z,99121.00
2023-01-27T08:05:34.188Z,99127.00
2023-01-27T08:08:05.421Z,99127.00
2023-01-27T08:10:36.272Z,99124.00
2023-01-27T08:13:07.164Z,99118.00
2023-01-27T08:15:38.071Z,99128.00
2023-01-27T08:18:10.591Z,99129.00
2023-01-27T08:20:41.435Z,99124.00
2023-01-27T08:23:12.338Z,99125.00
2023-01-27T08:25:55.819Z,99137.00
2023-01-27T08:28:29.570Z,99130.00
2023-01-27T08:31:18.633Z,99139.00
2023-01-27T08:33:54.012Z,99132.00
2023-01-27T08:36:25.429Z,99142.00
2023-01-27T08:38:56.679Z,99146.00
2023-01-27T08:41:28.017Z,99149.00
2023-01-27T08:43:58.840Z,99139.00
2023-01-27T08:46:29.758Z,99147.00
2023-01-27T08:49:00.696Z,99152.00
2023-01-27T08:51:34.586Z,99147.00
2023-01-27T08:54:06.343Z,99152.00
2023-01-27T08:56:37.357Z,99163.00
2023-01-27T08:59:08.280Z,99162.00
2023-01-27T09:01:39.391Z,99167.00
2023-01-27T09:04:10.410Z,99165.00
2023-01-27T09:06:42.420Z,99151.00
2023-01-27T09:09:13.266Z,99142.00
2023-01-27T09:11:45.648Z,99146.00
2023-01-27T09:14:16.515Z,99143.00
2023-01-27T09:16:47.388Z,99141.00
2023-01-27T09:19:18.287Z,99139.00
2023-01-27T09:21:49.354Z,99151.00
2023-01-27T09:24:20.612Z,99148.00
2023-01-27T09:26:51.583Z,99153.00
2023-01-27T09:29:22.471Z,99153.00
2023-01-27T09:31:53.486Z,99146.00
2023-01-27T09:34:24.662Z,99149.00
2023-01-27T09:37:03.168Z,99153.00
2023-01-27T09:39:40.627Z,99155.00
2023-01-27T09:42:38.631Z,99163.00
2023-01-27T09:45:24.434Z,99161.00
2023-01-27T09:48:32.095Z,99155.00
2023-01-27T09:51:35.556Z,99145.00
2023-01-27T09:54:54.692Z,99152.00
2023-01-27T09:57:53.648Z,99155.00
2023-01-27T10:00:47.848Z,99155.00
2023-01-27T10:03:30.796Z,99162.00
2023-01-27T10:06:39.207Z,99154.00
2023-01-27T10:09:12.731Z,99153.00
2023-01-27T10:12:15.504Z,99150.00
2023-01-27T10:15:08.548Z,99154.00
2023-01-27T10:18:01.158Z,99147.00
2023-01-27T10:21:03.136Z,99159.00
2023-01-27T10:23:52.043Z,99156.00
2023-01-27T10:26:50.007Z,99155.00
2023-01-27T10:29:24.733Z,99150.00
2023-01-27T10:32:08.853Z,99153.00
2023-01-27T10:35:09.333Z,99151.00
2023-01-27T10:38:12.302Z,99151.00
2023-01-27T10:41:35.841Z,99148.00
2023-01-27T10:44:32.772Z,99157.00
2023-01-27T10:47:38.857Z,99160.00
2023-01-27T10:50:19.756Z,99170.00
2023-01-27T10:53:10.591Z,99163.00
2023-01-27T10:56:10.110Z,99165.00
2023-01-27T10:59:23.564Z,99148.00
2023-01-27T11:02:07.456Z,99151.00
2023-01-27T11:04:47.059Z,99160.00
2023-01-27T11:07:21.825Z,99147.00
2023-01-27T11:09:57.095Z,99158.00
2023-01-27T11:12:36.900Z,99152.00
2023-01-27T11:15:35.131Z,99149.00
2023-01-27T11:18:26.015Z,99156.00
2023-01-27T11:21:03.993Z,99153.00
2023-01-27T11:23:42.948Z,99153.00
2023-01-27T11:26:43.697Z,99165.00
2023-01-27T11:29:46.130Z,99147.00
2023-01-27T11:32:52.416Z,99144.00
2023-01-27T11:35:23.638Z,99146.00
2023-01-27T11:38:06.332Z,99135.00
2023-01-27T11:40:46.990Z,99143.00
2023-01-27T11:43:26.771Z,99144.00
2023-01-27T11:46:03.203Z,99141.00
2023-01-27T11:48:42.852Z,99146.00
2023-01-27T11:51:32.033Z,99144.00
2023-01-27T11:54:18.229Z,99140.00
2023-01-27T11:56:50.662Z,99134.00
2023-01-27T11:59:29.864Z,99132.00
2023-01-27T12:02:44.708Z,99132.00
2023-01-27T12:05:28.857Z,99123.00
2023-01-27T12:08:03.456Z,99126.00
2023-01-27T12:10:44.231Z,99115.00
2023-01-27T12:13:21.195Z,99117.00
2023-01-27T12:15:56.715Z,99124.00
2023-01-27T12:18:31.957Z,99119.00
2023-01-27T12:21:08.530Z,99119.00
2023-01-27T12:23:56.865Z,99117.00
2023-01-27T12:26:45.967Z,99119.00
2023-01-27T12:29:34.209Z,99111.00
2023-01-27T12:32:28.650Z,99107.00
2023-01-27T12:34:59.522Z,99109.00
2023-01-27T12:37:37.893Z,99109.00
2023-01-27T12:40:22.424Z,99112.00
2023-01-27T12:43:02.427Z,99105.00
2023-01-27T12:45:40.857Z,99135.00
2023-01-27T12:48:17.324Z,99103.00
2023-01-27T12:50:51.115Z,99119.00
2023-01-27T12:53:27.566Z,99102.00
2023-01-27T12:56:07.804Z,99112.00
2023-01-27T12:58:47.693Z,99112.00
2023-01-27T13:01:34.773Z,99108.00
2023-01-27T13:04:22.536Z,99095.00
2023-01-27T13:07:13.831Z,99098.00
2023-01-27T13:10:02.950Z,99102.00
2023-01-27T13:12:58.338Z,99098.00
2023-01-27T13:15:31.644Z,99104.00
2023-01-27T13:18:23.413Z,99096.00
2023-01-27T13:21:11.670Z,99097.00
2023-01-27T13:23:43.555Z,99092.00
2023-01-27T13:26:23.947Z,99103.00
2023-01-27T13:29:14.800Z,99111.00
2023-01-27T13:31:59.255Z,99107.00
2023-01-27T13:34:57.583Z,99116.00
2023-01-27T13:37:44.997Z,99112.00
2023-01-27T13:40:29.229Z,99102.00
2023-01-27T13:43:21.170Z,99121.00
2023-01-27T13:46:04.884Z,99121.00
2023-01-27T13:48:43.920Z,99119.00
2023-01-27T13:51:18.315Z,99130.00
2023-01-27T13:54:02.890Z,99133.00
2023-01-27T13:57:20.709Z,99132.00
2023-01-27T14:00:32.005Z,99144.00
2023-01-27T14:03:32.052Z,99141.00
2023-01-27T14:06:35.769Z,99139.00
2023-01-27T14:09:45.227Z,99146.00
2023-01-27T14:12:59.136Z,99152.00
2023-01-27T14:15:54.871Z,99146.00
2023-01-27T14:18:35.667Z,99164.00
2023-01-27T14:21:42.856Z,99157.00
2023-01-27T14:24:29.870Z,99148.00
2023-01-27T14:27:06.694Z,99145.00
2023-01-27T14:30:05.703Z,99147.00
2023-01-27T14:32:54.468Z,99152.00
2023-01-27T14:36:16.044Z,99153.00
2023-01-27T14:38:57.800Z,99165.00
2023-01-27T14:42:09.866Z,99165.00
2023-01-27T14:45:13.683Z,99164.00
2023-01-27T14:48:03.063Z,99162.00
2023-01-27T14:50:47.590Z,99158.00
2023-01-27T14:53:52.514Z,99162.00
2023-01-27T14:57:00.524Z,99167.00
2023-01-27T14:59:36.900Z,99159.00
2023-01-27T15:02:48.429Z,99155.00
2023-01-27T15:05:24.328Z,99157.00
2023-01-27T15:08:50.475Z,99153.00
2023-01-27T15:11:55.154Z,99159.00
2023-01-27T15:14:44.833Z,99163.00
2023-01-27T15:17:34.552Z,99147.00
2023-01-27T15:21:00.965Z,99156.00
2023-01-27T15:24:25.629Z,99154.00
2023-01-27T15:26:57.110Z,99151.00
2023-01-27T15:29:30.804Z,99147.00
2023-01-27T15:32:30.695Z,99156.00
2023-01-27T15:35:38.014Z,99160.00
2023-01-27T15:38:19.811Z,99146.00
2023-01-27T15:41:07.203Z,99156.00
2023-01-27T15:43:44.150Z,99152.00
2023-01-27T15:46:34.859Z,99154.00
2023-01-27T15:49:19.167Z,99160.00
2023-01-27T15:52:32.800Z,99172.00
2023-01-27T15:55:07.898Z,99182.00
2023-01-27T15:57:40.268Z,99184.00
2023-01-27T16:00:33.875Z,99180.00
2023-01-27T16:03:17.670Z,99188.00
2023-01-27T16:05:53.159Z,99197.00
2023-01-27T16:08:26.709Z,99204.00
2023-01-27T16:11:29.736Z,99212.00
2023-01-27T16:14:12.797Z,99210.00
2023-01-27T16:17:25.530Z,99222.00
2023-01-27T16:20:23.247Z,99223.00
2023-01-27T16:23:08.469Z,99225.00
2023-01-27T16:26:36.952Z,99230.00
2023-01-27T16:29:31.263Z,99217.00
2023-01-27T16:32:25.550Z,99227.00
2023-01-27T16:35:04.527Z,99224.00
2023-01-27T16:37:37.945Z,99225.00
2023-01-27T16:40:22.370Z,99226.00
2023-01-27T16:42:53.174Z,99219.00
2023-01-27T16:45:28.899Z,99221.00
2023-01-27T16:48:12.899Z,99224.00
2023-01-27T16:50:44.889Z,99225.00
2023-01-27T16:53:21.618Z,99228.00
2023-01-27T16:56:27.573Z,99234.00
2023-01-27T16:59:27.353Z,99221.00
2023-01-27T17:02:05.971Z,99225.00
2023-01-27T17:04:37.323Z,99229.00
2023-01-27T17:07:16.209Z,99244.00
2023-01-27T17:10:00.000Z,99232.00
2023-01-27T17:12:36.320Z,99253.00
2023-01-27T17:15:34.317Z,99233.00
2023-01-27T17:18:10.352Z,99245.00
2023-01-27T17:20:46.834Z,99234.00
2023-01-27T17:23:32.192Z,99237.00
2023-01-27T17:26:16.653Z,99234.00
2023-01-27T17:28:48.298Z,99234.00
2023-01-27T17:31:25.207Z,99241.00
2023-01-27T17:34:01.186Z,99246.00
2023-01-27T17:36:32.201Z,99250.00
2023-01-27T17:39:03.128Z,99253.00
2023-01-27T17:41:37.555Z,99248.00
2023-01-27T17:44:18.309Z,99247.00
2023-01-27T17:46:49.437Z,99255.00
2023-01-27T17:49:23.287Z,99250.00
2023-01-27T17:51:57.122Z,99249.00
2023-01-27T17:54:39.089Z,99244.00
2023-01-27T17:57:23.267Z,99242.00
2023-01-27T18:00:11.421Z,99259.00
2023-01-27T18:03:06.189Z,99263.00
2023-01-27T18:05:38.429Z,99256.00
2023-01-27T18:08:10.889Z,99255.00
2023-01-27T18:10:44.272Z,99257.00
2023-01-27T18:13:18.224Z,99264.00
2023-01-27T18:16:15.014Z,99262.00
2023-01-27T18:18:49.887Z,99267.00
2023-01-27T18:21:26.625Z,99259.00
2023-01-27T18:24:02.127Z,99255.00
2023-01-27T18:26:43.260Z,99250.00
2023-01-27T18:29:23.568Z,99257.00
2023-01-27T18:32:09.215Z,99255.00
2023-01-27T18:34:53.539Z,99261.00
2023-01-27T18:37:30.374Z,99259.00
2023-01-27T18:40:32.729Z,99253.00
2023-01-27T18:43:10.097Z,99259.00
2023-01-27T18:45:44.938Z,99258.00
2023-01-27T18:48:17.571Z,99260.00
2023-01-27T18:50:51.194Z,99260.00
2023-01-27T18:53:22.166Z,99261.00
2023-01-27T18:55:53.784Z,99274.00
2023-01-27T18:58:24.679Z,99265.00
2023-01-27T19:00:57.516Z,99277.00
2023-01-27T19:03:30.686Z,99267.00
2023-01-27T19:06:01.674Z,99262.00
2023-01-27T19:08:34.172Z,99265.00
2023-01-27T19:11:05.372Z,99265.00
2023-01-27T19:13:36.255Z,99273.00
2023-01-27T19:16:13.907Z,99269.00
2023-01-27T19:18:45.560Z,99263.00
2023-01-27T19:21:17.049Z,99276.00
2023-01-27T19:23:49.742Z,99274.00
2023-01-27T19:26:23.515Z,99273.00
2023-01-27T19:29:02.366Z,99289.00
2023-01-27T19:31:33.704Z,99281.00
2023-01-27T19:34:06.848Z,99279.00
2023-01-27T19:36:46.066Z,99277.00
2023-01-27T19:39:22.422Z,99279.00
2023-01-27T19:41:53.453Z,99274.00
2023-01-27T19:44:24.610Z,99282.00
2023-01-27T19:46:55.762Z,99267.00
2023-01-27T19:49:26.694Z,99279.00
2023-01-27T19:51:58.969Z,99289.00
2023-01-27T19:54:30.750Z,99290.00
2023-01-27T19:57:02.184Z,99291.00
2023-01-27T19:59:33.094Z,99300.00
2023-01-27T20:02:04.382Z,99292.00
2023-01-27T20:04:35.696Z,99297.00
2023-01-27T20:07:06.735Z,99308.00
2023-01-27T20:09:37.609Z,99294.00
2023-01-27T20:12:16.058Z,99294.00
2023-01-27T20:14:47.513Z,99304.00
2023-01-27T20:17:18.764Z,99299.00
2023-01-27T20:19:49.841Z,99310.00
2023-01-27T20:22:20.793Z,99300.00
2023-01-27T20:24:51.865Z,99295.00
2023-01-27T20:27:22.860Z,99306.00
2023-01-27T20:29:53.933Z,99305.00
2023-01-27T20:32:26.286Z,99300.00
2023-01-27T20:34:59.473Z,99314.00
2023-01-27T20:37:30.703Z,99312.00
2023-01-27T20:40:01.709Z,99317.00
2023-01-27T20:42:33.100Z,99300.00
2023-01-27T20:45:04.843Z,99309.00
2023-01-27T20:47:36.355Z,99315.00
2023-01-27T20:50:09.807Z,99314.00
2023-01-27T20:52:40.905Z,99313.00
2023-01-27T20:55:14.112Z,99319.00
2023-01-27T20:57:47.160Z,99315.00
2023-01-27T21:00:21.386Z,99315.00
2023-01-27T21:02:52.317Z,99313.00
2023-01-27T21:05:23.515Z,99319.00
2023-01-27T21:07:54.611Z,99324.00
2023-01-27T21:10:25.949Z,99318.00
2023-01-27T21:12:56.944Z,99323.00
2023-01-27T21:15:28.129Z,99326.00
2023-01-27T21:18:00.156Z,99329.00
2023-01-27T21:20:31.141Z,99330.00
2023-01-27T21:23:02.510Z,99333.00
2023-01-27T21:25:37.135Z,99334.00
2023-01-27T21:28:08.368Z,99343.00
2023-01-27T21:30:39.431Z,99333.00
2023-01-27T21:33:12.704Z,99330.00
2023-01-27T21:35:43.703Z,99333.00
2023-01-27T21:38:16.740Z,99327.00
2023-01-27T21:40:47.771Z,99329.00
2023-01-27T21:43:37.092Z,99340.00
2023-01-27T21:46:08.258Z,99328.00
2023-01-27T21:48:39.419Z,99330.00
2023-01-27T21:51:10.398Z,99320.00
2023-01-27T21:53:41.724Z,99325.00
2023-01-27T21:56:13.442Z,99326.00
2023-01-27T21:58:44.490Z,99335.00
2023-01-27T22:01:15.404Z,99328.00
2023-01-27T22:03:46.762Z,99330.00
2023-01-27T22:06:17.801Z,99324.00
2023-01-27T22:08:52.372Z,99326.00
2023-01-27T22:11:23.243Z,99326.00
2023-01-27T22:13:54.125Z,99323.00
2023-01-27T22:16:26.017Z,99312.00
2023-01-27T22:18:56.929Z,99315.00
2023-01-27T22:21:27.839Z,99316.00
2023-01-27T22:23:58.805Z,99326.00
2023-01-27T22:26:29.704Z,99316.00
2023-01-27T22:29:00.581Z,99321.00
2023-01-27T22:31:31.514Z,99325.00
2023-01-27T22:34:02.388Z,99322.00
2023-01-27T22:36:33.245Z,99327.00
2023-01-27T22:39:04.882Z,99328.00
2023-01-27T22:41:35.797Z,99327.00
2023-01-27T22:44:08.310Z,99327.00
2023-01-27T22:46:42.817Z,99320.00
2023-01-27T22:49:13.802Z,99332.00
2023-01-27T22:51:48.796Z,99323.00
2023-01-27T22:54:19.842Z,99333.00
2023-01-27T22:56:50.731Z,99326.00
2023-01-27T22:59:21.686Z,99326.00
2023-01-27T23:01:52.720Z,99326.00
2023-01-27T23:04:23.625Z,99321.00
2023-01-27T23:06:54.529Z,99334.00
2023-01-27T23:09:25.380Z,99322.00
2023-01-27T23:11:56.696Z,99335.00
2023-01-27T23:14:27.563Z,99323.00
2023-01-27T23:16:58.623Z,99329.00
2023-01-27T23:19:29.765Z,99331.00
2023-01-27T23:22:00.809Z,99334.00
2023-01-27T23:24:31.939Z,99332.00
2023-01-27T23:27:02.918Z,99330.00
2023-01-27T23:29:33.813Z,99324.00
2023-01-27T23:32:04.928Z,99321.00
2023-01-27T23:34:35.974Z,99320.00
2023-01-27T23:37:06.880Z,99320.00
2023-01-27T23:39:37.718Z,99332.00
2023-01-27T23:42:08.801Z,99331.00
2023-01-27T23:44:39.668Z,99322.00
2023-01-27T23:47:12.318Z,99333.00
2023-01-27T23:49:43.153Z,99336.00
2023-01-27T23:52:14.102Z,99340.00
2023-01-27T23:54:45.096Z,99333.00
2023-01-27T23:57:15.986Z,99335.00
2023-01-27T23:59:46.889Z,99331.00
